createdAt,value
2023-04-23T00:03:25.511Z,56.81
2023-04-23T00:07:29.172Z,57.01
2023-04-23T00:11:32.622Z,56.70
2023-04-23T00:15:38.127Z,56.90
2023-04-23T00:19:41.144Z,56.89
2023-04-23T00:23:44.263Z,56.98
2023-04-23T00:27:47.810Z,57.33
2023-04-23T00:31:52.364Z,57.24
2023-04-23T00:35:55.560Z,57.28
2023-04-23T00:39:58.569Z,57.66
2023-04-23T00:44:01.770Z,57.96
2023-04-23T00:48:08.210Z,58.36
2023-04-23T00:52:11.250Z,59.01
2023-04-23T00:56:15.280Z,59.06
2023-04-23T01:00:20.385Z,59.53
2023-04-23T01:04:29.547Z,59.78
2023-04-23T01:08:33.643Z,59.78
2023-04-23T01:12:36.763Z,59.60
2023-04-23T01:16:41.199Z,59.75
2023-04-23T01:20:46.198Z,59.54
2023-04-23T01:24:51.310Z,59.49
2023-04-23T01:28:55.350Z,59.75
2023-04-23T01:32:59.302Z,60.16
2023-04-23T01:37:04.549Z,60.71
2023-04-23T01:41:09.604Z,61.27
2023-04-23T01:45:12.938Z,61.45
2023-04-23T01:49:16.109Z,61.65
2023-04-23T01:53:19.335Z,61.86
2023-04-23T01:57:26.648Z,62.35
2023-04-23T02:01:43.646Z,62.03
2023-04-23T02:05:48.485Z,62.13
2023-04-23T02:09:51.936Z,62.30
2023-04-23T02:13:56.400Z,62.17
2023-04-23T02:17:59.478Z,62.41
2023-04-23T02:22:02.944Z,62.49
2023-04-23T02:26:06.485Z,62.41
2023-04-23T02:30:12.490Z,62.73
2023-04-23T02:34:15.501Z,62.71
2023-04-23T02:38:18.546Z,62.98
2023-04-23T02:42:21.753Z,62.97
2023-04-23T02:46:26.227Z,63.51
2023-04-23T02:50:29.387Z,63.39
2023-04-23T02:54:32.953Z,63.42
2023-04-23T02:58:36.805Z,63.38
2023-04-23T03:02:41.519Z,63.74
2023-04-23T03:06:44.896Z,63.91
2023-04-23T03:10:47.936Z,64.17
2023-04-23T03:14:51.061Z,64.30
2023-04-23T03:18:56.065Z,64.37
2023-04-23T03:23:00.069Z,64.75
2023-04-23T03:27:03.775Z,64.72
2023-04-23T03:31:07.011Z,64.97
2023-04-23T03:35:11.789Z,65.18
2023-04-23T03:39:19.292Z,65.39
2023-04-23T03:43:28.955Z,65.09
2023-04-23T03:47:40.785Z,65.30
2023-04-23T03:51:46.070Z,65.44
2023-04-23T03:55:49.125Z,65.40
2023-04-23T03:59:52.520Z,65.86
2023-04-23T04:03:55.730Z,66.04
2023-04-23T04:08:01.799Z,65.73
2023-04-23T04:12:30.769Z,65.82
2023-04-23T04:16:34.007Z,65.98
2023-04-23T04:20:37.088Z,66.43
2023-04-23T04:24:42.218Z,66.70
2023-04-23T04:28:45.667Z,66.96
2023-04-23T04:32:50.973Z,66.96
2023-04-23T04:36:54.822Z,66.79
2023-04-23T04:41:02.545Z,66.98
2023-04-23T04:45:06.112Z,66.76
2023-04-23T04:49:09.843Z,66.72
2023-04-23T04:53:12.950Z,66.62
2023-04-23T04:57:17.378Z,66.46
2023-04-23T05:01:21.401Z,66.41
2023-04-23T05:05:25.759Z,66.10
2023-04-23T05:09:28.727Z,66.02
2023-04-23T05:13:33.154Z,66.10
2023-04-23T05:17:36.417Z,66.40
2023-04-23T05:21:39.545Z,66.60
2023-04-23T05:25:42.730Z,65.97
2023-04-23T05:29:47.375Z,65.51
2023-04-23T05:33:50.889Z,65.98
2023-04-23T05:37:54.195Z,65.67
2023-04-23T05:41:58.125Z,65.41
2023-04-23T05:46:04.451Z,65.09
2023-04-23T05:50:08.685Z,64.88
2023-04-23T05:54:11.744Z,64.84
2023-04-23T05:58:15.726Z,64.11
2023-04-23T06:02:22.495Z,63.70
2023-04-23T06:06:28.052Z,63.32
2023-04-23T06:10:31.246Z,62.67
2023-04-23T06:14:34.229Z,62.02
2023-04-23T06:18:39.291Z,61.63
2023-04-23T06:22:42.319Z,61.13
2023-04-23T06:26:46.148Z,61.45
2023-04-23T06:30:56.053Z,60.76
2023-04-23T06:35:02.346Z,60.15
2023-04-23T06:39:05.622Z,59.58
2023-04-23T06:43:09.815Z,59.27
2023-04-23T06:47:29.464Z,59.20
2023-04-23T06:51:34.105Z,58.68
2023-04-23T06:55:37.223Z,58.12
2023-04-23T06:59:40.292Z,58.29
2023-04-23T07:03:45.238Z,56.77
2023-04-23T07:07:49.872Z,56.66
2023-04-23T07:11:52.861Z,56.31
2023-04-23T07:15:55.982Z,56.04
2023-04-23T07:19:59.009Z,55.86
2023-04-23T07:24:07.273Z,55.28
2023-04-23T07:28:10.730Z,55.59
2023-04-23T07:32:14.103Z,55.14
2023-04-23T07:36:17.291Z,54.70
2023-04-23T07:40:22.503Z,54.51
2023-04-23T07:44:25.697Z,54.64
2023-04-23T07:48:28.971Z,54.18
2023-04-23T07:52:32.007Z,53.74
2023-04-23T07:56:37.080Z,52.78
2023-04-23T08:00:40.164Z,52.90
2023-04-23T08:04:43.410Z,53.35
2023-04-23T08:08:46.655Z,52.69
2023-04-23T08:12:51.187Z,51.61
2023-04-23T08:16:54.185Z,51.41
2023-04-23T08:20:57.592Z,51.87
2023-04-23T08:25:00.972Z,51.71
2023-04-23T08:29:07.840Z,51.80
2023-04-23T08:33:12.380Z,51.52
2023-04-23T08:37:27.163Z,51.14
2023-04-23T08:41:36.493Z,50.44
2023-04-23T08:45:42.619Z,50.57
2023-04-23T08:49:47.653Z,50.64
2023-04-23T08:53:57.264Z,50.58
2023-04-23T08:58:01.399Z,50.22
2023-04-23T09:02:10.389Z,50.22
2023-04-23T09:06:13.525Z,49.59
2023-04-23T09:10:18.582Z,49.26
2023-04-23T09:14:26.044Z,49.31
2023-04-23T09:18:30.644Z,49.13
2023-04-23T09:22:43.182Z,48.50
2023-04-23T09:26:50.012Z,48.01
2023-04-23T09:30:55.260Z,48.10
2023-04-23T09:34:59.985Z,48.63
2023-04-23T09:39:03.026Z,48.66
2023-04-23T09:43:07.421Z,47.31
2023-04-23T09:47:12.154Z,47.79
2023-04-23T09:51:16.875Z,47.91
2023-04-23T09:55:28.951Z,47.77
2023-04-23T09:59:46.709Z,47.61
2023-04-23T10:03:56.585Z,47.02
2023-04-23T10:08:02.071Z,47.94
2023-04-23T10:12:05.367Z,48.21
2023-04-23T10:16:21.588Z,46.57
2023-04-23T10:20:27.017Z,46.11
2023-04-23T10:24:34.653Z,45.05
2023-04-23T10:28:38.643Z,45.75
2023-04-23T10:32:43.362Z,45.45
2023-04-23T10:36:46.471Z,44.09
2023-04-23T10:40:53.238Z,44.10
2023-04-23T10:45:02.610Z,44.07
2023-04-23T10:49:16.364Z,43.71
2023-04-23T10:53:21.482Z,42.37
2023-04-23T10:57:25.928Z,42.42
2023-04-23T11:01:31.188Z,42.78
2023-04-23T11:05:36.784Z,43.27
2023-04-23T11:09:42.730Z,42.41
2023-04-23T11:13:55.175Z,42.73
2023-04-23T11:18:02.057Z,41.31
2023-04-23T11:22:08.297Z,41.25
2023-04-23T11:26:11.399Z,42.18
2023-04-23T11:30:17.713Z,41.78
2023-04-23T11:34:21.130Z,42.81
2023-04-23T11:38:24.181Z,41.62
2023-04-23T11:42:28.285Z,41.04
2023-04-23T11:46:32.887Z,40.97
2023-04-23T11:50:37.363Z,40.65
2023-04-23T11:54:42.418Z,40.77
2023-04-23T11:58:45.457Z,40.70
2023-04-23T12:02:54.762Z,40.88
2023-04-23T12:06:59.728Z,40.97
2023-04-23T12:11:06.374Z,40.32
2023-04-23T12:15:10.236Z,41.25
2023-04-23T12:19:16.658Z,40.61
2023-04-23T12:23:19.677Z,40.09
2023-04-23T12:27:23.239Z,39.27
2023-04-23T12:31:27.812Z,39.27
2023-04-23T12:35:42.975Z,38.97
2023-04-23T12:39:45.965Z,39.85
2023-04-23T12:43:50.395Z,39.30
2023-04-23T12:47:53.482Z,39.53
2023-04-23T12:52:01.288Z,38.97
2023-04-23T12:56:05.003Z,39.23
2023-04-23T13:00:09.352Z,38.71
2023-04-23T13:04:12.656Z,38.27
2023-04-23T13:08:17.071Z,38.88
2023-04-23T13:12:20.043Z,38.72
2023-04-23T13:16:23.299Z,38.25
2023-04-23T13:20:26.903Z,38.37
2023-04-23T13:24:31.415Z,37.94
2023-04-23T13:28:34.409Z,37.75
2023-04-23T13:32:37.518Z,37.21
2023-04-23T13:36:42.329Z,37.13
2023-04-23T13:40:46.953Z,38.11
2023-04-23T13:44:49.926Z,37.58
2023-04-23T13:48:54.600Z,37.31
2023-04-23T13:52:57.967Z,37.91
2023-04-23T13:57:02.649Z,37.42
2023-04-23T14:01:05.898Z,37.44
2023-04-23T14:05:10.071Z,37.32
2023-04-23T14:09:13.097Z,37.89
2023-04-23T14:13:17.666Z,38.01
2023-04-23T14:17:20.681Z,37.61
2023-04-23T14:21:23.979Z,37.90
2023-04-23T14:25:31.665Z,37.45
2023-04-23T14:29:42.512Z,38.01
2023-04-23T14:33:45.644Z,38.73
2023-04-23T14:37:48.837Z,38.52
2023-04-23T14:41:51.865Z,38.45
2023-04-23T14:45:56.347Z,38.44
2023-04-23T14:50:01.212Z,38.78
2023-04-23T14:54:04.988Z,38.52
2023-04-23T14:58:08.015Z,38.31
2023-04-23T15:02:12.841Z,38.24
2023-04-23T15:06:15.989Z,38.40
2023-04-23T15:10:20.480Z,39.24
2023-04-23T15:14:27.667Z,38.42
2023-04-23T15:18:33.876Z,38.55
2023-04-23T15:22:37.052Z,38.55
2023-04-23T15:26:40.615Z,38.36
2023-04-23T15:30:44.898Z,38.74
2023-04-23T15:34:49.426Z,38.73
2023-04-23T15:38:52.446Z,38.72
2023-04-23T15:42:55.532Z,39.46
2023-04-23T15:47:01.298Z,39.22
2023-04-23T15:51:06.333Z,39.09
2023-04-23T15:55:10.190Z,39.85
2023-04-23T15:59:13.696Z,39.42
2023-04-23T16:03:17.054Z,39.03
2023-04-23T16:07:21.808Z,39.27
2023-04-23T16:11:27.624Z,39.12
2023-04-23T16:15:30.860Z,39.70
2023-04-23T16:19:33.863Z,39.05
2023-04-23T16:23:38.606Z,39.46
2023-04-23T16:27:41.693Z,39.50
2023-04-23T16:31:44.778Z,39.30
2023-04-23T16:35:47.781Z,39.35
2023-04-23T16:39:52.240Z,39.79
2023-04-23T16:43:55.215Z,39.72
2023-04-23T16:47:58.385Z,39.83
2023-04-23T16:52:01.637Z,40.01
2023-04-23T16:56:07.176Z,39.95
2023-04-23T17:00:12.487Z,40.09
2023-04-23T17:04:15.717Z,40.29
2023-04-23T17:08:18.986Z,40.28
2023-04-23T17:12:23.479Z,40.52
2023-04-23T17:16:27.532Z,40.49
2023-04-23T17:20:35.136Z,40.80
2023-04-23T17:24:39.082Z,40.98
2023-04-23T17:28:43.798Z,41.33
2023-04-23T17:32:47.005Z,41.44
2023-04-23T17:36:50.185Z,41.46
2023-04-23T17:40:54.047Z,41.64
2023-04-23T17:44:58.498Z,42.12
2023-04-23T17:49:01.649Z,42.13
2023-04-23T17:53:05.491Z,42.13
2023-04-23T17:57:09.793Z,42.77
2023-04-23T18:05:18.300Z,42.92
2023-04-23T18:09:21.670Z,43.09
2023-04-23T18:13:24.729Z,43.23
2023-04-23T18:17:29.572Z,43.03
2023-04-23T18:21:33.798Z,43.75
2023-04-23T18:25:37.220Z,44.27
2023-04-23T18:29:41.356Z,44.29
2023-04-23T18:33:55.128Z,44.47
2023-04-23T18:38:06.920Z,44.29
2023-04-23T18:42:11.051Z,44.82
2023-04-23T18:46:14.152Z,45.40
2023-04-23T18:50:44.907Z,45.97
2023-04-23T18:54:47.870Z,46.26
2023-04-23T18:58:51.307Z,46.49
2023-04-23T19:02:54.499Z,46.85
2023-04-23T19:06:58.990Z,46.92
2023-04-23T19:11:01.987Z,47.05
2023-04-23T19:15:06.015Z,47.13
2023-04-23T19:19:09.256Z,47.41
2023-04-23T19:23:13.762Z,47.69
2023-04-23T19:27:17.130Z,47.90
2023-04-23T19:31:20.258Z,48.34
2023-04-23T19:35:23.414Z,48.72
2023-04-23T19:39:27.922Z,49.03
2023-04-23T19:43:31.008Z,49.19
2023-04-23T19:47:38.652Z,49.42
2023-04-23T19:51:41.974Z,49.43
2023-04-23T19:55:46.412Z,50.05
2023-04-23T19:59:49.594Z,50.79
2023-04-23T20:03:53.824Z,50.83
2023-04-23T20:07:57.123Z,50.95
2023-04-23T20:12:01.995Z,51.77
2023-04-23T20:16:05.261Z,51.89
2023-04-23T20:20:11.112Z,52.19
2023-04-23T20:24:14.988Z,52.32
2023-04-23T20:28:19.723Z,52.19
2023-04-23T20:32:22.739Z,52.24
2023-04-23T20:36:28.845Z,52.12
2023-04-23T20:40:34.436Z,52.11
2023-04-23T20:44:41.780Z,51.96
2023-04-23T20:48:44.767Z,51.60
2023-04-23T20:52:47.885Z,51.44
2023-04-23T20:56:54.054Z,51.61
2023-04-23T21:00:59.271Z,51.72
2023-04-23T21:05:02.299Z,52.60
2023-04-23T21:09:05.712Z,53.47
2023-04-23T21:13:11.112Z,53.56
2023-04-23T21:17:16.082Z,54.07
2023-04-23T21:21:19.173Z,54.35
2023-04-23T21:25:22.320Z,54.62
2023-04-23T21:29:26.461Z,54.68
2023-04-23T21:33:30.876Z,55.11
2023-04-23T21:37:33.950Z,55.51
2023-04-23T21:41:37.217Z,55.56
2023-04-23T21:45:40.483Z,55.75
2023-04-23T21:49:45.000Z,55.95
2023-04-23T21:53:48.081Z,55.93
2023-04-23T21:57:51.332Z,55.82
2023-04-23T22:01:54.540Z,55.77
2023-04-23T22:05:59.367Z,56.11
2023-04-23T22:10:02.763Z,56.27
2023-04-23T22:14:06.379Z,56.46
2023-04-23T22:18:09.667Z,56.76
2023-04-23T22:22:14.164Z,57.10
2023-04-23T22:26:17.221Z,57.43
2023-04-23T22:30:20.530Z,57.65
2023-04-23T22:34:24.951Z,58.24
2023-04-23T22:38:29.571Z,58.27
2023-04-23T22:42:32.538Z,58.47
2023-04-23T22:46:35.859Z,58.95
2023-04-23T22:50:40.060Z,58.75
2023-04-23T22:54:45.094Z,59.05
2023-04-23T22:58:48.069Z,59.01
2023-04-23T23:02:51.537Z,59.43
2023-04-23T23:06:54.600Z,59.57
2023-04-23T23:10:59.012Z,59.49
2023-04-23T23:15:02.662Z,59.62
2023-04-23T23:19:05.989Z,59.68
2023-04-23T23:23:08.994Z,59.79
2023-04-23T23:27:13.527Z,60.14
2023-04-23T23:31:16.980Z,59.94
2023-04-23T23:35:20.226Z,59.87
2023-04-23T23:39:23.444Z,59.97
2023-04-23T23:43:27.924Z,59.73
2023-04-23T23:47:31.000Z,59.89
2023-04-23T23:51:34.247Z,59.75
2023-04-23T23:55:38.722Z,59.70
2023-04-23T23:59:43.585Z,59.91
